createdAt,value
2022-12-31T00:00:26.164Z,0.00
2022-12-31T00:05:32.884Z,0.00
2022-12-31T00:10:41.912Z,0.00
2022-12-31T00:15:45.552Z,0.00
2022-12-31T00:20:53.305Z,0.00
2022-12-31T00:26:00.121Z,0.00
2022-12-31T00:31:08.511Z,0.00
2022-12-31T00:36:14.574Z,0.00
2022-12-31T00:41:19.576Z,0.00
2022-12-31T00:46:24.204Z,0.00
2022-12-31T00:51:28.114Z,0.00
2022-12-31T00:56:32.903Z,0.00
2022-12-31T01:01:37.774Z,0.00
2022-12-31T01:06:41.477Z,0.00
2022-12-31T01:11:47.532Z,0.35
2022-12-31T01:16:52.058Z,0.00
2022-12-31T01:21:56.450Z,0.00
2022-12-31T01:27:01.027Z,0.00
2022-12-31T01:32:05.695Z,0.00
2022-12-31T01:37:09.144Z,0.00
2022-12-31T01:42:14.963Z,0.00
2022-12-31T01:47:20.972Z,0.00
2022-12-31T01:52:25.581Z,0.00
2022-12-31T01:57:31.024Z,0.00
2022-12-31T02:02:35.405Z,0.30
2022-12-31T02:07:40.332Z,0.50
2022-12-31T02:12:45.307Z,0.90
2022-12-31T02:17:54.173Z,0.50
2022-12-31T02:23:17.155Z,0.20
2022-12-31T02:28:29.429Z,0.70
2022-12-31T02:33:40.778Z,0.45
2022-12-31T02:38:45.665Z,0.70
2022-12-31T02:43:49.088Z,0.30
2022-12-31T02:48:55.055Z,0.80
2022-12-31T02:54:13.854Z,0.88
2022-12-31T02:59:40.556Z,0.93
2022-12-31T03:04:50.804Z,0.80
2022-12-31T03:09:57.415Z,1.05
2022-12-31T03:15:01.536Z,0.90
2022-12-31T03:20:24.922Z,0.90
2022-12-31T03:25:38.096Z,1.15
2022-12-31T03:30:43.598Z,1.10
2022-12-31T03:35:48.719Z,1.20
2022-12-31T03:40:52.847Z,0.90
2022-12-31T03:45:58.277Z,1.20
2022-12-31T03:51:06.232Z,0.82
2022-12-31T03:56:12.763Z,1.27
2022-12-31T04:01:17.755Z,1.10
2022-12-31T04:06:25.339Z,1.15
2022-12-31T04:11:29.102Z,0.90
2022-12-31T04:16:34.275Z,1.65
2022-12-31T04:21:40.780Z,0.93
2022-12-31T04:26:45.189Z,1.10
2022-12-31T04:31:49.225Z,0.88
2022-12-31T04:36:54.082Z,1.10
2022-12-31T04:41:57.673Z,1.20
2022-12-31T04:47:03.356Z,2.63
2022-12-31T04:52:08.557Z,1.08
2022-12-31T04:57:11.755Z,1.15
2022-12-31T05:02:16.817Z,0.70
2022-12-31T05:07:25.869Z,0.98
2022-12-31T05:12:29.180Z,1.15
2022-12-31T05:17:32.718Z,1.00
2022-12-31T05:22:37.630Z,1.10
2022-12-31T05:27:41.862Z,1.08
2022-12-31T05:32:47.180Z,0.50
2022-12-31T05:37:53.924Z,0.60
2022-12-31T05:42:58.616Z,0.70
2022-12-31T05:48:02.513Z,0.68
2022-12-31T05:53:07.197Z,0.80
2022-12-31T05:58:14.101Z,0.70
2022-12-31T06:03:18.107Z,0.60
2022-12-31T06:08:23.989Z,0.80
2022-12-31T06:13:28.232Z,0.55
2022-12-31T06:18:32.741Z,0.55
2022-12-31T06:23:38.136Z,0.52
2022-12-31T06:28:43.383Z,0.73
2022-12-31T06:33:48.097Z,0.63
2022-12-31T06:39:00.836Z,0.70
2022-12-31T06:44:06.479Z,0.90
2022-12-31T06:49:10.757Z,0.70
2022-12-31T06:54:17.275Z,0.77
2022-12-31T06:59:28.261Z,0.70
2022-12-31T07:04:45.638Z,1.00
2022-12-31T07:09:56.866Z,0.85
2022-12-31T07:15:04.240Z,0.70
2022-12-31T07:20:11.656Z,0.80
2022-12-31T07:25:17.740Z,0.60
2022-12-31T07:30:25.353Z,0.60
2022-12-31T07:35:35.632Z,0.70
2022-12-31T07:40:58.029Z,1.00
2022-12-31T07:46:07.259Z,0.90
2022-12-31T07:51:16.142Z,0.80
2022-12-31T07:56:21.399Z,0.90
2022-12-31T08:01:38.789Z,1.52
2022-12-31T08:06:45.820Z,0.80
2022-12-31T08:11:52.860Z,0.80
2022-12-31T08:16:56.745Z,0.70
2022-12-31T08:22:16.587Z,1.02
2022-12-31T08:27:26.492Z,0.75
2022-12-31T08:32:35.660Z,0.82
2022-12-31T08:37:43.818Z,0.50
2022-12-31T08:43:01.355Z,0.60
2022-12-31T08:48:14.532Z,0.82
2022-12-31T08:53:18.303Z,0.88
2022-12-31T08:58:32.039Z,0.60
2022-12-31T09:04:02.416Z,0.80
2022-12-31T09:09:10.092Z,0.60
2022-12-31T09:14:29.590Z,0.88
2022-12-31T09:19:35.946Z,0.70
2022-12-31T09:24:40.020Z,0.80
2022-12-31T09:29:50.816Z,0.70
2022-12-31T09:34:57.360Z,0.90
2022-12-31T09:40:01.368Z,0.80
2022-12-31T09:45:42.712Z,0.80
2022-12-31T09:51:10.222Z,1.05
2022-12-31T09:56:19.601Z,0.73
2022-12-31T10:01:43.551Z,0.68
2022-12-31T10:06:51.338Z,0.77
2022-12-31T10:12:24.100Z,0.70
2022-12-31T10:17:42.692Z,1.00
2022-12-31T10:23:05.721Z,1.02
2022-12-31T10:28:16.868Z,0.75
2022-12-31T10:33:33.078Z,0.80
2022-12-31T10:38:41.332Z,1.67
2022-12-31T10:44:05.769Z,0.50
2022-12-31T10:49:35.700Z,0.68
2022-12-31T10:55:28.102Z,0.80
2022-12-31T11:00:32.473Z,0.82
2022-12-31T11:06:14.578Z,0.77
2022-12-31T11:11:30.357Z,0.73
2022-12-31T11:16:46.797Z,0.73
2022-12-31T11:22:02.751Z,0.70
2022-12-31T11:27:18.624Z,1.13
2022-12-31T11:32:30.473Z,0.88
2022-12-31T11:37:39.276Z,0.98
2022-12-31T11:42:53.999Z,0.60
2022-12-31T11:53:40.797Z,0.93
2022-12-31T11:58:49.496Z,1.15
2022-12-31T12:03:54.465Z,0.68
2022-12-31T12:09:07.768Z,0.60
2022-12-31T12:14:23.525Z,0.98
2022-12-31T12:19:29.774Z,0.90
2022-12-31T12:24:33.616Z,0.80
2022-12-31T12:29:39.316Z,0.90
2022-12-31T12:34:49.412Z,0.90
2022-12-31T12:40:01.521Z,0.90
2022-12-31T12:45:16.003Z,0.77
2022-12-31T12:50:24.142Z,0.80
2022-12-31T13:00:42.685Z,1.02
2022-12-31T13:05:54.744Z,1.05
2022-12-31T13:11:16.087Z,1.00
2022-12-31T13:16:29.393Z,1.13
2022-12-31T13:21:45.233Z,1.13
2022-12-31T13:26:51.862Z,1.10
2022-12-31T13:31:59.069Z,1.20
2022-12-31T13:37:05.978Z,1.20
2022-12-31T13:42:14.703Z,1.20
2022-12-31T13:52:30.836Z,1.20
2022-12-31T13:57:42.360Z,1.27
2022-12-31T14:02:53.079Z,1.15
2022-12-31T14:08:00.655Z,1.20
2022-12-31T14:13:32.441Z,1.40
2022-12-31T14:18:44.966Z,1.40
2022-12-31T14:23:51.513Z,1.30
2022-12-31T14:29:39.778Z,1.15
2022-12-31T14:35:29.315Z,1.20
2022-12-31T14:40:43.397Z,1.30
2022-12-31T14:45:52.532Z,1.30
2022-12-31T14:56:29.729Z,1.15
2022-12-31T15:08:50.363Z,1.20
2022-12-31T15:14:30.934Z,1.40
2022-12-31T15:20:32.870Z,1.08
2022-12-31T15:25:41.813Z,1.35
2022-12-31T15:30:46.584Z,1.50
2022-12-31T15:35:51.879Z,1.30
2022-12-31T15:40:56.517Z,1.30
2022-12-31T15:46:17.350Z,1.50
2022-12-31T15:51:24.085Z,1.60
2022-12-31T15:56:34.933Z,1.50
2022-12-31T16:01:38.519Z,1.70
2022-12-31T16:06:44.908Z,1.95
2022-12-31T16:11:55.103Z,1.42
2022-12-31T16:16:59.715Z,1.85
2022-12-31T16:22:07.733Z,1.90
2022-12-31T16:27:15.792Z,1.85
2022-12-31T16:32:20.277Z,1.70
2022-12-31T16:37:24.210Z,1.27
2022-12-31T16:42:29.639Z,1.27
2022-12-31T16:47:34.197Z,1.55
2022-12-31T16:52:40.522Z,1.30
2022-12-31T16:57:47.944Z,1.70
2022-12-31T17:03:03.401Z,1.60
2022-12-31T17:08:21.579Z,1.17
2022-12-31T17:13:30.971Z,1.67
2022-12-31T17:18:37.319Z,1.60
2022-12-31T17:23:42.110Z,1.60
2022-12-31T17:28:52.911Z,2.10
2022-12-31T17:34:07.356Z,2.42
2022-12-31T17:39:22.930Z,2.33
2022-12-31T17:44:30.866Z,3.00
2022-12-31T17:49:35.690Z,2.37
2022-12-31T17:54:40.268Z,1.98
2022-12-31T17:59:45.611Z,1.55
2022-12-31T18:04:50.908Z,2.50
2022-12-31T18:09:55.139Z,1.52
2022-12-31T18:15:03.398Z,2.22
2022-12-31T18:20:09.417Z,2.40
2022-12-31T18:25:15.689Z,2.20
2022-12-31T18:30:20.913Z,2.30
2022-12-31T18:35:58.056Z,2.20
2022-12-31T18:40:52.824Z,2.10
2022-12-31T18:45:58.232Z,2.47
2022-12-31T18:51:02.031Z,2.03
2022-12-31T18:56:11.562Z,2.00
2022-12-31T19:01:29.404Z,2.85
2022-12-31T19:06:36.030Z,4.18
2022-12-31T19:11:41.623Z,3.28
2022-12-31T19:16:47.195Z,3.00
2022-12-31T19:21:57.387Z,1.88
2022-12-31T19:27:02.132Z,2.30
2022-12-31T19:32:08.310Z,1.77
2022-12-31T19:37:14.536Z,1.80
2022-12-31T19:42:20.004Z,1.85
2022-12-31T19:47:31.306Z,1.92
2022-12-31T19:52:35.640Z,1.70
2022-12-31T19:57:39.129Z,1.60
2022-12-31T20:02:44.638Z,1.60
2022-12-31T20:07:48.895Z,1.38
2022-12-31T20:12:53.068Z,1.40
2022-12-31T20:17:59.192Z,1.02
2022-12-31T20:23:03.435Z,1.60
2022-12-31T20:28:10.748Z,1.60
2022-12-31T20:33:19.147Z,1.90
2022-12-31T20:38:24.604Z,1.77
2022-12-31T20:43:32.572Z,1.83
2022-12-31T20:48:37.704Z,1.38
2022-12-31T20:53:41.949Z,1.10
2022-12-31T20:58:45.732Z,1.20
2022-12-31T21:04:07.095Z,1.27
2022-12-31T21:09:10.862Z,1.27
2022-12-31T21:14:14.308Z,1.33
2022-12-31T21:19:21.113Z,1.30
2022-12-31T21:24:24.824Z,1.33
2022-12-31T21:29:32.773Z,1.40
2022-12-31T21:34:39.704Z,1.30
2022-12-31T21:39:43.115Z,1.42
2022-12-31T21:44:47.024Z,1.40
2022-12-31T21:49:53.946Z,1.65
2022-12-31T21:55:20.539Z,1.60
2022-12-31T22:00:51.184Z,1.67
2022-12-31T22:06:00.594Z,1.45
2022-12-31T22:11:06.600Z,2.30
2022-12-31T22:16:10.293Z,2.58
2022-12-31T22:21:19.993Z,2.65
2022-12-31T22:26:28.513Z,2.35
2022-12-31T22:31:32.097Z,2.20
2022-12-31T22:36:37.474Z,1.95
2022-12-31T22:41:42.927Z,5.43
2022-12-31T22:46:49.145Z,3.60
2022-12-31T22:51:58.925Z,2.22
2022-12-31T22:57:05.070Z,2.03
2022-12-31T23:02:08.700Z,1.80
2022-12-31T23:07:13.558Z,5.82
2022-12-31T23:12:16.889Z,11.27
2022-12-31T23:17:38.826Z,8.18
2022-12-31T23:23:02.639Z,12.25
2022-12-31T23:28:07.545Z,11.20
2022-12-31T23:33:15.593Z,15.45
2022-12-31T23:38:24.305Z,14.38
2022-12-31T23:43:27.892Z,11.40
2022-12-31T23:48:31.739Z,16.77
2022-12-31T23:53:37.996Z,17.98
2022-12-31T23:58:41.434Z,15.45
